Time;durP1;ratioP1;P1;durP2;ratioP2;P2;SDS_P1;SDS_P2;PMS_P1;PMS_P2;Temp;Humidity;BMP_temperature;BMP_pressure;BME280_temperature;BME280_humidity;BME280_pressure;Samples;Min_cycle;Max_cycle;Signal;HPM_P1;HPM_P2
2021/07/04 00:01:15;;;;;;;13.80;10.60;;;19.10;99.90;;;;;;5116091;27;20382;-68
2021/07/04 00:03:40;;;;;;;12.90;11.52;;;19.10;99.90;;;;;;5116336;28;20062;-68
2021/07/04 00:06:06;;;;;;;11.15;9.88;;;19.00;99.90;;;;;;5116039;28;20389;-68
2021/07/04 00:08:32;;;;;;;12.23;10.50;;;19.10;99.90;;;;;;5115771;28;20096;-68
2021/07/04 00:11:00;;;;;;;18.73;11.43;;;19.00;99.90;;;;;;5116289;28;20512;-68
2021/07/04 00:13:28;;;;;;;12.52;11.15;;;19.00;99.90;;;;;;5115486;28;20066;-68
2021/07/04 00:15:55;;;;;;;12.35;11.13;;;19.00;99.90;;;;;;5115806;28;20088;-68
2021/07/04 00:18:23;;;;;;;14.52;12.55;;;18.90;99.90;;;;;;5115556;28;20036;-68
2021/07/04 00:20:49;;;;;;;13.20;11.80;;;18.90;99.90;;;;;;5115219;28;20054;-68
2021/07/04 00:23:16;;;;;;;17.17;12.35;;;18.90;99.90;;;;;;5116062;28;20084;-68
2021/07/04 00:25:43;;;;;;;14.57;12.90;;;18.90;99.90;;;;;;5115975;28;20115;-68
2021/07/04 00:28:10;;;;;;;16.27;12.27;;;18.90;99.90;;;;;;5115337;28;20468;-68
2021/07/04 00:30:36;;;;;;;13.85;11.30;;;18.90;99.90;;;;;;5114937;28;20035;-68
2021/07/04 00:33:03;;;;;;;14.18;12.68;;;18.90;99.90;;;;;;5115640;28;20038;-68
2021/07/04 00:35:29;;;;;;;15.57;12.07;;;18.90;99.90;;;;;;5115265;28;20448;-68
2021/07/04 00:37:54;;;;;;;15.18;12.10;;;18.90;99.90;;;;;;5115695;28;20071;-68
2021/07/04 00:40:21;;;;;;;14.68;12.52;;;18.90;99.90;;;;;;5114896;27;20494;-68
2021/07/04 00:42:47;;;;;;;15.05;12.55;;;18.90;99.90;;;;;;5115433;28;20137;-68
2021/07/04 00:45:19;;;;;;;14.25;12.10;;;18.90;99.90;;;;;;5115442;28;20057;-68
2021/07/04 00:47:46;;;;;;;19.00;13.98;;;18.90;99.90;;;;;;5115517;28;20061;-68
2021/07/04 00:50:12;;;;;;;18.33;14.35;;;18.80;99.90;;;;;;5114693;28;20085;-68
2021/07/04 00:52:38;;;;;;;16.55;14.25;;;18.80;99.90;;;;;;5115748;28;20043;-68
2021/07/04 00:55:06;;;;;;;16.08;14.00;;;18.80;99.90;;;;;;5114946;28;20089;-68
2021/07/04 00:57:33;;;;;;;17.75;13.32;;;18.80;99.90;;;;;;5114965;28;20464;-68
2021/07/04 00:59:59;;;;;;;18.73;13.93;;;18.70;99.90;;;;;;5114534;28;20075;-68
2021/07/04 01:02:26;;;;;;;17.75;13.38;;;18.70;99.90;;;;;;5114880;28;20039;-68
2021/07/04 01:04:51;;;;;;;17.35;13.98;;;18.70;99.90;;;;;;5114755;28;20548;-68
2021/07/04 01:07:17;;;;;;;14.98;13.48;;;18.70;99.90;;;;;;5113593;28;20043;-68
2021/07/04 01:09:43;;;;;;;15.63;13.57;;;18.60;99.90;;;;;;5114373;28;20084;-68
2021/07/04 01:12:09;;;;;;;17.77;14.70;;;18.70;99.90;;;;;;5114590;28;20062;-68
2021/07/04 01:14:35;;;;;;;18.00;15.93;;;18.60;99.90;;;;;;5113479;28;20393;-68
2021/07/04 01:17:02;;;;;;;17.52;14.23;;;18.60;99.90;;;;;;5114459;28;20471;-68
2021/07/04 01:19:28;;;;;;;16.63;14.68;;;18.50;99.90;;;;;;5114458;28;20039;-68
2021/07/04 01:21:56;;;;;;;16.90;14.50;;;18.50;99.90;;;;;;5114544;28;20031;-68
2021/07/04 01:24:23;;;;;;;18.27;14.88;;;18.50;99.90;;;;;;5114869;28;20084;-68
2021/07/04 01:26:50;;;;;;;16.02;13.27;;;18.50;99.90;;;;;;5114524;28;20078;-68
2021/07/04 01:29:17;;;;;;;16.13;14.43;;;18.50;99.90;;;;;;5114047;28;20571;-68
2021/07/04 01:31:43;;;;;;;18.13;14.25;;;18.50;99.90;;;;;;5114732;28;20042;-68
2021/07/04 01:34:09;;;;;;;17.13;14.50;;;18.50;99.90;;;;;;5115025;28;20084;-68
2021/07/04 01:36:35;;;;;;;19.42;15.75;;;18.50;99.90;;;;;;5114677;28;20406;-68
2021/07/04 01:39:01;;;;;;;15.68;13.93;;;18.50;99.90;;;;;;5113929;28;20117;-68
2021/07/04 01:41:27;;;;;;;18.05;15.45;;;18.50;99.90;;;;;;5114356;28;20035;-68
2021/07/04 01:43:53;;;;;;;18.05;15.95;;;18.50;99.90;;;;;;5114233;28;20563;-68
2021/07/04 01:46:21;;;;;;;17.92;15.20;;;18.50;99.90;;;;;;5113705;28;20429;-68
2021/07/04 01:48:47;;;;;;;18.23;16.13;;;18.40;99.90;;;;;;5114048;28;20042;-68
2021/07/04 01:51:12;;;;;;;20.20;15.25;;;18.40;99.90;;;;;;5114177;28;20115;-68
2021/07/04 01:53:38;;;;;;;16.92;14.77;;;18.40;99.90;;;;;;5114509;28;20065;-68
2021/07/04 01:56:07;;;;;;;20.25;15.43;;;18.40;99.90;;;;;;5114331;28;20036;-68
2021/07/04 01:58:34;;;;;;;16.52;14.27;;;18.40;99.90;;;;;;5114203;28;20111;-68
2021/07/04 02:01:00;;;;;;;17.00;14.68;;;18.40;99.90;;;;;;5113926;28;20042;-68
2021/07/04 02:03:25;;;;;;;20.13;14.48;;;18.40;99.90;;;;;;5114486;28;20031;-68
2021/07/04 02:05:51;;;;;;;20.02;15.25;;;18.40;99.90;;;;;;5113799;28;20142;-68
2021/07/04 02:08:17;;;;;;;16.58;13.68;;;18.40;99.90;;;;;;5114274;28;20046;-68
2021/07/04 02:10:44;;;;;;;16.27;14.20;;;18.30;99.90;;;;;;5113291;28;20035;-68
2021/07/04 02:13:10;;;;;;;19.15;14.65;;;18.30;99.90;;;;;;5113859;28;20552;-68
2021/07/04 02:15:39;;;;;;;18.95;14.30;;;18.40;99.90;;;;;;5114189;28;20089;-68
2021/07/04 02:18:11;;;;;;;17.95;14.90;;;18.40;99.90;;;;;;5114018;28;20042;-68
2021/07/04 02:20:46;;;;;;;15.32;13.65;;;18.40;99.90;;;;;;5113347;28;20502;-68
2021/07/04 02:23:21;;;;;;;19.33;15.75;;;18.30;99.90;;;;;;5114003;28;20039;-68
2021/07/04 02:25:48;;;;;;;18.05;14.48;;;18.30;99.90;;;;;;5113669;28;20085;-68
2021/07/04 02:28:16;;;;;;;17.00;13.77;;;18.30;99.90;;;;;;5114179;28;20043;-68
2021/07/04 02:30:43;;;;;;;15.40;13.70;;;18.30;99.90;;;;;;5113098;28;20036;-68
2021/07/04 02:33:11;;;;;;;19.67;15.93;;;18.30;99.90;;;;;;5113483;28;20551;-68
2021/07/04 02:35:43;;;;;;;18.20;14.70;;;18.20;99.90;;;;;;5113788;28;20069;-69
2021/07/04 02:38:09;;;;;;;15.95;14.25;;;18.20;99.90;;;;;;5113364;28;20085;-68
2021/07/04 02:40:36;;;;;;;18.48;15.77;;;18.20;99.90;;;;;;5113400;28;20044;-68
2021/07/04 02:43:03;;;;;;;17.38;14.60;;;18.10;99.90;;;;;;5113566;28;20042;-68
2021/07/04 02:45:29;;;;;;;16.55;14.75;;;18.10;99.90;;;;;;5113926;28;20067;-68
2021/07/04 02:47:55;;;;;;;16.80;14.63;;;18.10;99.90;;;;;;5113792;28;20079;-68
2021/07/04 02:50:21;;;;;;;20.23;15.57;;;18.10;99.90;;;;;;5113226;28;20047;-68
2021/07/04 02:52:51;;;;;;;19.30;16.27;;;18.10;99.90;;;;;;5113845;28;20047;-68
2021/07/04 02:55:19;;;;;;;18.63;14.27;;;18.10;99.90;;;;;;5113407;28;20043;-68
2021/07/04 02:57:46;;;;;;;17.52;14.63;;;18.10;99.90;;;;;;5113910;28;20046;-68
2021/07/04 03:00:15;;;;;;;17.23;15.00;;;18.10;99.90;;;;;;5117036;28;20039;-68
2021/07/04 03:02:40;;;;;;;18.38;13.85;;;18.10;99.90;;;;;;5117402;28;20038;-68
2021/07/04 03:05:08;;;;;;;18.80;15.32;;;18.00;99.90;;;;;;5117462;27;20114;-68
2021/07/04 03:07:35;;;;;;;19.88;15.52;;;18.00;99.90;;;;;;5117395;28;20372;-68
2021/07/04 03:10:01;;;;;;;17.55;14.32;;;18.10;99.90;;;;;;5116660;27;20044;-68
2021/07/04 03:12:27;;;;;;;17.50;14.00;;;18.10;99.90;;;;;;5116862;28;20039;-68
2021/07/04 03:14:53;;;;;;;19.63;15.80;;;18.10;99.90;;;;;;5117372;28;20035;-68
2021/07/04 03:17:19;;;;;;;18.13;14.60;;;18.10;99.90;;;;;;5116706;27;20510;-68
2021/07/04 03:19:45;;;;;;;20.75;15.82;;;18.10;99.90;;;;;;5116867;28;20417;-68
2021/07/04 03:22:10;;;;;;;16.55;14.55;;;18.10;99.90;;;;;;5117290;28;20035;-68
2021/07/04 03:24:39;;;;;;;17.40;15.52;;;18.10;99.90;;;;;;5116855;28;20036;-68
2021/07/04 03:27:09;;;;;;;23.92;14.98;;;18.10;99.90;;;;;;5116751;28;20055;-68
2021/07/04 03:29:36;;;;;;;16.35;14.63;;;18.10;99.90;;;;;;5116487;28;20084;-68
2021/07/04 03:32:03;;;;;;;18.35;15.00;;;18.10;99.90;;;;;;5116505;28;20035;-68
2021/07/04 03:34:29;;;;;;;23.25;15.60;;;18.10;99.90;;;;;;5116964;28;20064;-68
2021/07/04 03:36:55;;;;;;;22.88;15.35;;;18.10;99.90;;;;;;5116338;28;20052;-68
2021/07/04 03:39:21;;;;;;;20.40;17.50;;;18.10;99.90;;;;;;5115993;28;20501;-68
2021/07/04 03:41:46;;;;;;;21.17;15.80;;;18.10;99.90;;;;;;5116374;28;20360;-68
2021/07/04 03:44:12;;;;;;;18.67;15.18;;;18.10;99.90;;;;;;5116157;28;20031;-68
2021/07/04 03:46:38;;;;;;;16.42;14.38;;;18.10;99.90;;;;;;5116765;28;20039;-68
2021/07/04 03:49:03;;;;;;;22.77;17.15;;;18.10;99.90;;;;;;5115916;27;20042;-68
2021/07/04 03:51:29;;;;;;;20.98;15.45;;;18.10;99.90;;;;;;5116053;28;20372;-68
2021/07/04 03:53:55;;;;;;;17.58;15.68;;;18.10;99.90;;;;;;5116782;28;20039;-68
2021/07/04 03:56:21;;;;;;;19.40;16.83;;;18.10;99.90;;;;;;5116036;28;20031;-68
2021/07/04 03:58:48;;;;;;;19.30;16.63;;;18.10;99.90;;;;;;5115606;28;20043;-68
2021/07/04 04:01:20;;;;;;;20.50;16.08;;;18.10;99.90;;;;;;5116443;28;20088;-68
2021/07/04 04:03:47;;;;;;;20.67;16.07;;;18.10;99.90;;;;;;5116109;28;20122;-68
2021/07/04 04:06:14;;;;;;;21.90;16.60;;;18.10;99.90;;;;;;5116251;27;20043;-68
2021/07/04 04:08:41;;;;;;;22.50;15.32;;;18.10;99.90;;;;;;5115218;28;20084;-67
2021/07/04 04:11:07;;;;;;;20.02;16.88;;;18.20;99.90;;;;;;5115129;28;20046;-68
2021/07/04 04:13:33;;;;;;;17.90;15.90;;;18.20;99.90;;;;;;5115863;28;20040;-68
2021/07/04 04:15:59;;;;;;;19.40;16.88;;;18.20;99.90;;;;;;5115563;28;20395;-68
2021/07/04 04:18:25;;;;;;;19.45;17.17;;;18.20;99.90;;;;;;5115941;28;20488;-68
2021/07/04 04:20:51;;;;;;;20.63;17.33;;;18.20;99.90;;;;;;5115272;28;20040;-68
2021/07/04 04:23:16;;;;;;;20.25;15.82;;;18.20;99.90;;;;;;5115467;28;20491;-68
2021/07/04 04:25:42;;;;;;;19.67;16.58;;;18.20;99.90;;;;;;5115953;28;20036;-68
2021/07/04 04:28:09;;;;;;;20.23;16.08;;;18.20;99.90;;;;;;5115282;28;20051;-68
2021/07/04 04:30:35;;;;;;;22.60;18.10;;;18.30;99.90;;;;;;5115261;28;20039;-68
2021/07/04 04:33:02;;;;;;;21.70;16.48;;;18.30;99.90;;;;;;5115237;28;20035;-68
2021/07/04 04:35:28;;;;;;;20.27;17.52;;;18.30;99.90;;;;;;5115514;28;20047;-68
2021/07/04 04:37:54;;;;;;;20.83;17.33;;;18.30;99.90;;;;;;5115187;27;20131;-68
2021/07/04 04:40:20;;;;;;;19.17;15.98;;;18.30;99.90;;;;;;5115134;28;20038;-68
2021/07/04 04:42:46;;;;;;;23.50;17.63;;;18.30;99.90;;;;;;5115353;28;20491;-68
2021/07/04 04:45:12;;;;;;;27.70;18.88;;;18.30;99.90;;;;;;5115503;28;20088;-68
2021/07/04 04:47:37;;;;;;;30.75;20.05;;;18.30;99.90;;;;;;5115542;28;20043;-68
2021/07/04 04:50:06;;;;;;;22.35;17.67;;;18.30;99.90;;;;;;5114573;28;20100;-68
2021/07/04 04:52:31;;;;;;;22.35;19.42;;;18.30;99.90;;;;;;5115623;28;20036;-68
2021/07/04 04:54:57;;;;;;;23.80;19.75;;;18.30;99.90;;;;;;5114981;28;20038;-68
2021/07/04 04:57:23;;;;;;;28.85;19.70;;;18.30;99.90;;;;;;5115395;27;20047;-68
2021/07/04 04:59:49;;;;;;;27.65;20.85;;;18.40;99.90;;;;;;5114669;28;20071;-68
2021/07/04 05:02:15;;;;;;;22.42;19.15;;;18.40;99.90;;;;;;5115299;28;20116;-68
2021/07/04 05:04:41;;;;;;;22.45;18.45;;;18.40;99.90;;;;;;5115356;28;20035;-68
2021/07/04 05:07:07;;;;;;;21.02;18.25;;;18.40;99.90;;;;;;5114629;28;20047;-68
2021/07/04 05:09:34;;;;;;;30.88;21.63;;;18.50;99.90;;;;;;5114370;28;20031;-68
2021/07/04 05:12:00;;;;;;;22.35;19.05;;;18.50;99.90;;;;;;5114525;28;20058;-68
2021/07/04 05:14:26;;;;;;;23.15;19.92;;;18.50;99.90;;;;;;5114973;28;20390;-68
2021/07/04 05:16:51;;;;;;;26.00;21.98;;;18.50;99.90;;;;;;5113766;28;20114;-68
2021/07/04 05:19:17;;;;;;;26.17;20.25;;;18.50;99.90;;;;;;5114341;28;20531;-68
2021/07/04 05:21:43;;;;;;;24.42;20.00;;;18.50;99.90;;;;;;5114284;28;20084;-68
2021/07/04 05:24:11;;;;;;;24.70;19.30;;;18.60;99.90;;;;;;5114694;28;20131;-68
2021/07/04 05:26:37;;;;;;;20.63;17.60;;;18.50;99.90;;;;;;5114408;28;20483;-68
2021/07/04 05:29:04;;;;;;;23.55;19.38;;;18.50;99.90;;;;;;5114015;28;20042;-68
2021/07/04 05:31:29;;;;;;;24.58;21.90;;;18.60;99.90;;;;;;5114148;28;20114;-68
2021/07/04 05:33:55;;;;;;;23.45;19.60;;;18.60;99.90;;;;;;5113148;28;20071;-68
2021/07/04 05:36:21;;;;;;;22.50;19.92;;;18.60;99.90;;;;;;5114127;28;20047;-68
2021/07/04 05:38:46;;;;;;;25.02;19.67;;;18.70;99.90;;;;;;5114125;28;20043;-68
2021/07/04 05:41:14;;;;;;;27.35;20.48;;;18.70;99.90;;;;;;5114068;28;20487;-68
2021/07/04 05:43:41;;;;;;;27.40;22.10;;;18.80;99.90;;;;;;5114099;28;20487;-68
2021/07/04 05:46:08;;;;;;;26.98;19.85;;;18.80;99.90;;;;;;5114420;28;20097;-68
2021/07/04 05:48:35;;;;;;;23.98;21.15;;;18.90;99.90;;;;;;5114452;28;20114;-68
2021/07/04 05:51:01;;;;;;;23.67;20.55;;;18.90;99.90;;;;;;5114436;28;20048;-68
2021/07/04 05:53:27;;;;;;;23.42;18.65;;;18.90;99.90;;;;;;5114150;28;20038;-68
2021/07/04 05:55:53;;;;;;;22.67;19.73;;;18.80;99.90;;;;;;5114188;28;20028;-68
2021/07/04 05:58:20;;;;;;;25.50;22.05;;;18.90;99.90;;;;;;5114092;28;20046;-68
2021/07/04 06:00:46;;;;;;;25.42;20.02;;;18.90;99.90;;;;;;5114115;28;20040;-68
2021/07/04 06:03:12;;;;;;;28.38;22.63;;;18.90;99.90;;;;;;5113753;28;20043;-68
2021/07/04 06:05:37;;;;;;;29.48;22.17;;;18.90;99.90;;;;;;5113769;28;20449;-68
2021/07/04 06:08:03;;;;;;;26.20;19.83;;;18.90;99.90;;;;;;5114681;28;20044;-68
2021/07/04 06:10:29;;;;;;;21.08;18.77;;;19.00;99.90;;;;;;5113508;28;20489;-68
2021/07/04 06:12:55;;;;;;;22.23;19.10;;;19.00;99.90;;;;;;5114137;28;20093;-68
2021/07/04 06:15:21;;;;;;;23.50;19.65;;;19.10;99.90;;;;;;5113695;28;20039;-68
2021/07/04 06:17:47;;;;;;;20.95;17.67;;;19.10;99.90;;;;;;5114213;28;20032;-68
2021/07/04 06:20:16;;;;;;;21.30;18.73;;;19.10;99.90;;;;;;5113400;28;20051;-68
2021/07/04 06:22:42;;;;;;;20.27;17.98;;;19.20;99.90;;;;;;5113918;28;20063;-69
2021/07/04 06:25:10;;;;;;;19.70;16.95;;;19.20;99.90;;;;;;5113998;28;20028;-69
2021/07/04 06:27:36;;;;;;;22.92;18.95;;;19.20;99.90;;;;;;5113570;28;20126;-69
2021/07/04 06:30:04;;;;;;;22.90;18.42;;;19.10;99.90;;;;;;5113351;28;20043;-68
2021/07/04 06:32:30;;;;;;;22.35;16.38;;;19.10;99.90;;;;;;5114011;28;20043;-68
2021/07/04 06:34:55;;;;;;;23.60;18.27;;;19.20;99.90;;;;;;5117917;28;20395;-68
2021/07/04 06:37:21;;;;;;;19.25;17.08;;;19.20;99.90;;;;;;5118010;28;20031;-68
2021/07/04 06:39:47;;;;;;;20.30;18.20;;;19.20;99.90;;;;;;5117618;28;20521;-68
2021/07/04 06:42:12;;;;;;;18.52;16.38;;;19.10;99.90;;;;;;5117272;28;20478;-68
2021/07/04 06:44:38;;;;;;;18.83;15.63;;;19.20;99.90;;;;;;5117521;28;20048;-68
2021/07/04 06:47:05;;;;;;;18.85;15.93;;;19.20;99.90;;;;;;5117312;28;20075;-69
2021/07/04 06:49:30;;;;;;;20.20;16.00;;;19.30;99.90;;;;;;5117092;28;20074;-68
2021/07/04 06:51:56;;;;;;;19.20;15.55;;;19.30;99.90;;;;;;5117455;28;20063;-68
2021/07/04 06:54:22;;;;;;;18.77;15.98;;;19.30;99.90;;;;;;5117425;28;20035;-68
2021/07/04 06:56:47;;;;;;;18.20;14.85;;;19.30;99.90;;;;;;5116967;28;20041;-68
2021/07/04 06:59:13;;;;;;;21.33;17.40;;;19.30;99.90;;;;;;5117363;28;20459;-68
2021/07/04 07:01:39;;;;;;;18.33;14.77;;;19.30;99.90;;;;;;5117091;28;20048;-68
2021/07/04 07:04:05;;;;;;;18.00;15.18;;;19.40;99.90;;;;;;5117779;28;20490;-68
2021/07/04 07:06:31;;;;;;;17.15;14.85;;;19.50;99.90;;;;;;5117178;28;20040;-68
2021/07/04 07:08:57;;;;;;;15.13;13.52;;;19.40;99.90;;;;;;5116952;28;20040;-68
2021/07/04 07:11:22;;;;;;;18.20;13.27;;;19.50;99.90;;;;;;5116948;28;20407;-68
2021/07/04 07:13:48;;;;;;;15.68;14.00;;;19.50;99.90;;;;;;5117388;28;20422;-68
2021/07/04 07:16:14;;;;;;;17.30;14.07;;;19.60;99.90;;;;;;5117369;27;20044;-68
2021/07/04 07:18:40;;;;;;;16.35;13.38;;;19.70;99.90;;;;;;5116317;28;20448;-67
2021/07/04 07:21:06;;;;;;;14.38;12.88;;;19.80;99.90;;;;;;5116890;28;20039;-68
2021/07/04 07:23:31;;;;;;;13.95;12.48;;;19.90;99.90;;;;;;5115778;28;20043;-68
2021/07/04 07:25:57;;;;;;;13.80;11.82;;;20.10;99.90;;;;;;5116517;28;20040;-68
2021/07/04 07:28:23;;;;;;;14.38;11.98;;;20.10;99.90;;;;;;5117102;28;20050;-68
2021/07/04 07:30:49;;;;;;;15.52;12.43;;;20.20;99.90;;;;;;5116658;28;20504;-69
2021/07/04 07:33:16;;;;;;;13.43;12.02;;;20.20;99.90;;;;;;5116727;28;20040;-69
2021/07/04 07:35:42;;;;;;;14.23;12.50;;;20.20;99.90;;;;;;5116476;28;20172;-69
2021/07/04 07:38:09;;;;;;;14.98;12.30;;;20.10;99.90;;;;;;5116868;28;20118;-69
2021/07/04 07:40:35;;;;;;;12.88;11.50;;;20.10;99.90;;;;;;5116290;28;20141;-69
2021/07/04 07:43:02;;;;;;;13.60;12.10;;;20.10;99.90;;;;;;5116444;28;20035;-68
2021/07/04 07:45:28;;;;;;;12.85;11.55;;;20.10;99.90;;;;;;5116894;28;20040;-68
2021/07/04 07:47:54;;;;;;;14.75;12.13;;;20.20;99.90;;;;;;5116282;28;20123;-70
2021/07/04 07:50:20;;;;;;;12.50;11.13;;;20.40;99.90;;;;;;5114823;28;20067;-68
2021/07/04 07:52:46;;;;;;;13.30;10.75;;;20.50;99.90;;;;;;5116494;28;20036;-68
2021/07/04 07:55:12;;;;;;;12.77;11.48;;;20.50;99.90;;;;;;5116105;28;20096;-68
2021/07/04 07:57:38;;;;;;;12.55;11.25;;;20.60;99.90;;;;;;5116711;27;20046;-67
2021/07/04 08:00:06;;;;;;;12.55;11.25;;;20.80;99.90;;;;;;5115087;28;20052;-68
2021/07/04 08:02:33;;;;;;;12.07;10.60;;;20.70;99.90;;;;;;5115976;28;20510;-68
2021/07/04 08:04:58;;;;;;;12.50;11.20;;;20.80;99.90;;;;;;5116092;28;20039;-68
2021/07/04 08:07:24;;;;;;;12.10;10.80;;;20.80;99.90;;;;;;5115729;28;20039;-68
2021/07/04 08:09:50;;;;;;;11.68;10.38;;;20.90;99.90;;;;;;5115511;28;20395;-68
2021/07/04 08:12:16;;;;;;;12.98;11.40;;;21.00;99.90;;;;;;5115926;28;20039;-68
2021/07/04 08:14:42;;;;;;;12.98;11.60;;;21.00;99.90;;;;;;5115564;28;20032;-68
2021/07/04 08:17:08;;;;;;;13.85;11.40;;;20.90;99.90;;;;;;5115863;28;20032;-68
2021/07/04 08:19:34;;;;;;;14.38;12.98;;;20.90;99.90;;;;;;5115730;28;20426;-69
2021/07/04 08:21:59;;;;;;;13.15;11.75;;;20.90;99.90;;;;;;5115652;28;20463;-69
2021/07/04 08:24:25;;;;;;;14.18;12.52;;;20.80;99.90;;;;;;5115745;28;20386;-69
2021/07/04 08:26:51;;;;;;;13.00;11.68;;;20.90;99.90;;;;;;5115517;28;20131;-69
2021/07/04 08:29:16;;;;;;;14.25;12.90;;;21.00;99.90;;;;;;5115000;28;20028;-69
2021/07/04 08:31:42;;;;;;;13.90;12.50;;;21.00;99.90;;;;;;5115392;28;20373;-69
2021/07/04 08:34:08;;;;;;;15.20;13.60;;;21.10;99.90;;;;;;5115152;28;20399;-69
2021/07/04 08:36:33;;;;;;;15.90;14.30;;;21.10;99.90;;;;;;5115500;28;20040;-69
2021/07/04 08:38:59;;;;;;;14.95;13.55;;;21.20;99.90;;;;;;5115196;28;20032;-69
2021/07/04 08:41:25;;;;;;;15.77;14.13;;;21.20;99.90;;;;;;5115029;28;20040;-69
2021/07/04 08:43:54;;;;;;;14.65;13.23;;;21.10;99.90;;;;;;5115220;28;20113;-69
2021/07/04 08:46:20;;;;;;;15.10;13.63;;;21.20;99.90;;;;;;5115253;28;20035;-68
2021/07/04 08:48:46;;;;;;;14.23;12.75;;;21.20;99.90;;;;;;5114728;28;20483;-68
2021/07/04 08:51:12;;;;;;;14.45;13.00;;;21.20;99.90;;;;;;5115003;28;20069;-69
2021/07/04 08:53:38;;;;;;;14.10;12.60;;;21.30;99.90;;;;;;5115527;28;20463;-68
2021/07/04 08:56:05;;;;;;;13.90;12.20;;;21.30;99.90;;;;;;5114799;28;20039;-68
2021/07/04 08:58:31;;;;;;;13.25;11.23;;;21.30;99.90;;;;;;5114495;28;20455;-68
2021/07/04 09:01:10;;;;;;;11.25;10.15;;;21.30;99.90;;;;;;5114976;28;20050;-68
2021/07/04 09:03:38;;;;;;;10.52;9.43;;;21.40;99.90;;;;;;5114881;28;20044;-68
2021/07/04 09:06:04;;;;;;;11.40;9.48;;;21.40;99.90;;;;;;5114337;28;20403;-68
2021/07/04 09:08:30;;;;;;;10.35;8.80;;;21.50;99.90;;;;;;5114452;28;20046;-69
2021/07/04 09:11:11;;;;;;;12.68;8.70;;;21.50;99.90;;;;;;5114504;28;20093;-68
2021/07/04 09:13:38;;;;;;;10.20;9.07;;;21.50;99.90;;;;;;5114549;28;20461;-68
2021/07/04 09:16:07;;;;;;;10.02;9.02;;;21.60;99.90;;;;;;5114903;28;20383;-69
2021/07/04 09:18:34;;;;;;;10.13;8.77;;;21.60;99.90;;;;;;5113652;28;20479;-69
2021/07/04 09:20:59;;;;;;;10.40;8.73;;;21.60;99.90;;;;;;5114818;27;20044;-69
2021/07/04 09:23:36;;;;;;;9.85;8.85;;;21.80;99.90;;;;;;5114401;28;20038;-68
2021/07/04 09:26:02;;;;;;;10.75;9.18;;;21.80;99.90;;;;;;5114439;28;20051;-68
2021/07/04 09:28:28;;;;;;;9.50;8.48;;;21.80;99.90;;;;;;5114599;28;20459;-68
2021/07/04 09:30:57;;;;;;;11.45;10.25;;;21.90;99.90;;;;;;5114414;28;20046;-68
2021/07/04 09:33:32;;;;;;;11.43;10.13;;;21.90;99.90;;;;;;5113916;28;20039;-68
2021/07/04 09:35:58;;;;;;;11.45;10.38;;;21.90;99.90;;;;;;5113162;28;20475;-69
2021/07/04 09:38:39;;;;;;;11.02;9.50;;;22.00;99.90;;;;;;5114081;28;20035;-69
2021/07/04 09:41:11;;;;;;;10.23;8.52;;;22.20;99.90;;;;;;5114348;28;20032;-68
2021/07/04 09:43:38;;;;;;;12.73;9.55;;;22.30;99.90;;;;;;5114118;28;20047;-68
2021/07/04 09:46:06;;;;;;;10.75;9.65;;;22.50;99.90;;;;;;5114302;28;20063;-68
2021/07/04 09:48:38;;;;;;;13.32;10.77;;;22.50;99.90;;;;;;5113577;28;20067;-69
2021/07/04 09:51:10;;;;;;;12.60;11.20;;;22.60;99.90;;;;;;5114102;28;20039;-69
2021/07/04 09:53:56;;;;;;;13.05;10.65;;;22.60;99.90;;;;;;5114484;28;20040;-68
2021/07/04 09:56:26;;;;;;;12.80;11.48;;;22.60;99.90;;;;;;5114112;28;20035;-68
2021/07/04 09:58:57;;;;;;;12.40;11.10;;;22.60;99.90;;;;;;5113750;28;20044;-69
2021/07/04 10:01:50;;;;;;;16.08;11.35;;;22.50;99.90;;;;;;5113710;28;20506;-69
2021/07/04 10:04:36;;;;;;;13.27;11.98;;;22.70;99.90;;;;;;5112593;28;20064;-68
2021/07/04 10:07:03;;;;;;;12.65;11.23;;;23.20;99.90;;;;;;5114260;28;20114;-69
2021/07/04 10:09:29;;;;;;;12.85;11.52;;;23.60;99.90;;;;;;5117487;28;20043;-69
2021/07/04 10:11:56;;;;;;;14.88;12.35;;;23.70;99.90;;;;;;5118039;28;20042;-68
2021/07/04 10:14:21;;;;;;;14.60;12.50;;;24.00;99.90;;;;;;5118855;28;20414;-69
2021/07/04 10:16:48;;;;;;;13.20;11.80;;;23.90;99.90;;;;;;5118069;28;20036;-69
2021/07/04 10:19:25;;;;;;;13.88;12.48;;;24.10;99.90;;;;;;5117769;27;20070;-70
2021/07/04 10:21:59;;;;;;;14.75;12.48;;;24.00;99.90;;;;;;5117760;28;20040;-69
2021/07/04 10:24:26;;;;;;;15.35;11.90;;;24.20;99.90;;;;;;5116920;28;20097;-69
2021/07/04 10:26:53;;;;;;;13.52;11.77;;;24.00;99.90;;;;;;5118363;28;20038;-69
2021/07/04 10:29:21;;;;;;;13.32;11.82;;;23.90;99.90;;;;;;5117334;28;20042;-69
2021/07/04 10:31:47;;;;;;;12.85;11.43;;;23.70;99.50;;;;;;5117505;28;20109;-69
2021/07/04 10:34:18;;;;;;;12.63;11.32;;;24.00;99.70;;;;;;5117789;28;20039;-69
2021/07/04 10:37:01;;;;;;;11.45;10.25;;;24.00;99.70;;;;;;5117768;28;20048;-69
2021/07/04 10:39:32;;;;;;;12.10;10.13;;;23.90;99.90;;;;;;5117249;28;20118;-69
2021/07/04 10:42:05;;;;;;;14.48;11.18;;;23.70;99.90;;;;;;5118086;28;20089;-69
2021/07/04 10:44:58;;;;;;;12.00;10.60;;;23.90;99.90;;;;;;5118167;28;20093;-69
2021/07/04 10:47:33;;;;;;;;;;;24.10;99.90;;;;;;5117741;28;20118;-69
2021/07/04 10:50:14;;;;;;;13.63;12.02;;;23.90;99.90;;;;;;5117106;28;20126;-69
2021/07/04 10:52:46;;;;;;;13.55;11.88;;;23.70;99.90;;;;;;5118051;28;20471;-70
2021/07/04 10:55:32;;;;;;;14.10;12.10;;;23.60;99.90;;;;;;5117368;28;20522;-69
2021/07/04 10:58:00;;;;;;;14.77;11.90;;;23.60;99.90;;;;;;5117369;28;20471;-69
2021/07/04 11:00:30;;;;;;;12.50;11.20;;;23.50;99.90;;;;;;5117050;28;20509;-69
2021/07/04 11:03:04;;;;;;;12.60;11.32;;;23.50;99.90;;;;;;5117565;27;20036;-69
2021/07/04 11:05:40;;;;;;;14.52;10.98;;;23.30;99.90;;;;;;5117196;28;20040;-69
2021/07/04 11:08:22;;;;;;;11.75;10.15;;;23.50;99.90;;;;;;5116932;28;20039;-69
2021/07/04 11:11:02;;;;;;;11.52;9.88;;;23.60;99.90;;;;;;5116712;28;20078;-69
2021/07/04 11:13:33;;;;;;;9.70;8.75;;;23.90;99.90;;;;;;5115613;28;20406;-69
2021/07/04 11:16:10;;;;;;;11.00;9.82;;;24.00;99.80;;;;;;5116855;28;20114;-69
2021/07/04 11:18:43;;;;;;;12.75;10.52;;;24.20;99.90;;;;;;5114860;28;20035;-70
2021/07/04 11:21:10;;;;;;;10.10;8.93;;;24.30;99.10;;;;;;5117107;28;20093;-69
2021/07/04 11:23:35;;;;;;;9.82;8.82;;;24.50;99.50;;;;;;5117207;28;20119;-69
2021/07/04 11:26:07;;;;;;;11.23;9.43;;;24.50;98.40;;;;;;5116496;28;20118;-69
2021/07/04 11:28:37;;;;;;;9.75;8.63;;;24.60;98.50;;;;;;5115537;28;20043;-71
2021/07/04 11:31:16;;;;;;;9.70;8.70;;;24.50;98.10;;;;;;5116543;28;20528;-69
2021/07/04 11:33:47;;;;;;;11.98;8.77;;;24.60;98.70;;;;;;5116966;28;20429;-69
2021/07/04 11:36:16;;;;;;;11.13;9.60;;;24.60;98.10;;;;;;5117122;28;20069;-69
2021/07/04 11:39:00;;;;;;;9.68;8.63;;;24.60;97.10;;;;;;5116689;28;20051;-68
2021/07/04 11:41:31;;;;;;;9.57;8.20;;;24.70;97.00;;;;;;5116737;28;20043;-69
2021/07/04 11:43:59;;;;;;;9.30;8.38;;;24.80;95.90;;;;;;5116585;28;20114;-69
2021/07/04 11:46:28;;;;;;;9.55;8.55;;;24.80;96.60;;;;;;5116470;28;20039;-68
2021/07/04 11:48:56;;;;;;;9.55;8.45;;;24.70;97.10;;;;;;5115773;28;20035;-68
2021/07/04 11:51:31;;;;;;;10.38;8.07;;;24.60;96.60;;;;;;5116179;28;20042;-68
2021/07/04 11:54:05;;;;;;;8.75;7.82;;;24.50;96.70;;;;;;5116501;28;20047;-68
2021/07/04 11:56:31;;;;;;;8.60;7.60;;;24.40;96.00;;;;;;5116592;28;20039;-68
2021/07/04 11:59:08;;;;;;;8.23;7.32;;;24.30;96.60;;;;;;5115565;28;20572;-68
2021/07/04 12:01:45;;;;;;;8.95;7.70;;;24.30;96.40;;;;;;5115746;28;20084;-67
2021/07/04 12:04:11;;;;;;;8.40;7.05;;;24.50;97.10;;;;;;5116247;28;20039;-67
2021/07/04 12:06:50;;;;;;;10.38;8.45;;;24.60;96.50;;;;;;5116254;28;20035;-67
2021/07/04 12:09:15;;;;;;;10.10;8.95;;;24.70;97.10;;;;;;5115511;28;20110;-68
2021/07/04 12:11:47;;;;;;;9.15;8.15;;;24.70;95.90;;;;;;5115799;28;20086;-68
2021/07/04 12:14:34;;;;;;;8.60;7.70;;;24.80;96.90;;;;;;5116349;27;20036;-68
2021/07/04 12:17:23;;;;;;;8.55;7.65;;;24.70;95.80;;;;;;5116065;28;20043;-69
2021/07/04 12:20:06;;;;;;;11.23;9.68;;;24.80;96.70;;;;;;5115497;28;20063;-68
2021/07/04 12:22:35;;;;;;;;;;;24.70;96.60;;;;;;5116193;27;20044;-69
2021/07/04 12:25:04;;;;;;;9.95;8.90;;;24.60;96.60;;;;;;5115565;28;20322;-69
2021/07/04 12:27:34;;;;;;;9.60;7.88;;;24.60;95.90;;;;;;5115700;28;20040;-69
2021/07/04 12:30:13;;;;;;;10.00;8.98;;;24.30;96.10;;;;;;5114525;28;20050;-69
2021/07/04 12:32:47;;;;;;;10.60;9.50;;;24.30;96.30;;;;;;5115620;28;20047;-69
2021/07/04 12:35:28;;;;;;;8.75;7.85;;;24.30;96.60;;;;;;5115721;28;20115;-69